createdAt,value
2023-11-18T16:26:42.602Z,8.70
2023-11-18T16:29:11.713Z,8.70
2023-11-18T16:31:39.035Z,8.90
2023-11-18T16:34:07.819Z,8.80
2023-11-18T16:36:34.897Z,8.80
2023-11-18T16:42:51.863Z,8.90
2023-11-18T16:45:21.947Z,8.90
2023-11-18T16:47:54.376Z,8.90
2023-11-18T16:50:24.750Z,8.90
2023-11-18T16:53:01.279Z,8.90
2023-11-18T16:55:29.622Z,8.90
2023-11-18T16:58:04.010Z,8.90
2023-11-18T17:00:35.801Z,9.00
2023-11-18T17:03:06.277Z,9.00
2023-11-18T17:05:34.073Z,9.00
2023-11-18T17:08:07.024Z,8.90
2023-11-18T17:10:35.072Z,9.00
2023-11-18T17:13:02.496Z,9.10
2023-11-18T17:15:30.057Z,9.10
2023-11-18T17:18:04.576Z,9.10
2023-11-18T17:20:32.352Z,9.10
2023-11-18T17:22:59.393Z,9.10
2023-11-18T17:25:26.356Z,9.10
2023-11-18T17:27:59.198Z,9.00
2023-11-18T17:30:26.412Z,9.50
2023-11-18T17:32:54.366Z,9.20
2023-11-18T17:35:22.777Z,8.50
2023-11-18T17:37:50.294Z,9.30
2023-11-18T17:40:17.615Z,9.00
2023-11-18T17:42:45.849Z,9.20
2023-11-18T17:45:13.982Z,9.10
2023-11-18T17:47:45.864Z,9.60
2023-11-18T17:50:18.509Z,9.30
2023-11-18T17:52:51.661Z,9.40
2023-11-18T17:55:19.110Z,9.50
2023-11-18T17:57:47.674Z,9.40
2023-11-18T18:00:20.670Z,9.40
2023-11-18T18:02:48.200Z,9.50
2023-11-18T18:05:15.429Z,9.50
2023-11-18T18:16:47.017Z,9.60
2023-11-18T18:19:14.046Z,9.70
2023-11-18T18:21:40.997Z,9.70
2023-11-18T18:24:08.313Z,9.70
2023-11-18T18:26:35.365Z,9.70
2023-11-18T18:29:02.398Z,9.80
2023-11-18T18:31:29.332Z,9.80
2023-11-18T18:33:56.489Z,9.90
2023-11-18T18:36:23.432Z,9.90
2023-11-18T18:38:50.978Z,10.00
2023-11-18T18:41:18.242Z,10.00
2023-11-18T18:43:45.224Z,10.00
2023-11-18T18:46:12.100Z,10.10
2023-11-18T18:48:44.933Z,10.10
2023-11-18T18:51:11.781Z,10.20
2023-11-18T18:53:38.714Z,10.20
2023-11-18T18:56:06.412Z,10.30
2023-11-18T18:58:38.442Z,10.30
2023-11-18T19:01:09.399Z,10.40
2023-11-18T19:03:37.623Z,10.40
2023-11-18T19:06:06.065Z,10.40
2023-11-18T19:08:33.209Z,10.50
2023-11-18T19:11:00.141Z,10.50
2023-11-18T19:13:27.013Z,10.70
2023-11-18T19:15:54.125Z,10.70
2023-11-18T19:18:21.165Z,10.70
2023-11-18T19:20:48.208Z,10.60
2023-11-18T19:23:15.588Z,10.70
